Time;durP1;ratioP1;P1;durP2;ratioP2;P2;SDS_P1;SDS_P2;PMS_P1;PMS_P2;Temp;Humidity;BMP_temperature;BMP_pressure;BME280_temperature;BME280_humidity;BME280_pressure;Samples;Min_cycle;Max_cycle;Signal;HPM_P1;HPM_P2
2024/02/12 00:00:35;;;;;;;3.23;1.50;;;6.00;99.90;;;;;;4990804;28;20428;-68
2024/02/12 00:03:02;;;;;;;1.70;1.47;;;6.00;99.90;;;;;;4992515;28;20462;-68
2024/02/12 00:05:28;;;;;;;2.43;1.53;;;6.10;99.90;;;;;;4992460;28;20439;-68
2024/02/12 00:07:54;;;;;;;3.00;1.77;;;6.00;99.90;;;;;;4992171;28;20438;-68
2024/02/12 00:10:19;;;;;;;1.40;1.30;;;6.00;99.90;;;;;;4978158;28;20188;-68
2024/02/12 00:12:45;;;;;;;1.57;1.43;;;6.00;99.90;;;;;;4973134;28;20200;-68
2024/02/12 00:15:11;;;;;;;1.23;1.13;;;6.10;99.90;;;;;;4972369;28;20191;-68
2024/02/12 00:17:39;;;;;;;2.00;1.37;;;6.00;99.90;;;;;;4975656;28;20583;-68
2024/02/12 00:20:06;;;;;;;1.40;1.30;;;6.10;99.90;;;;;;4976500;28;20430;-68
2024/02/12 00:22:35;;;;;;;1.60;1.50;;;6.10;99.90;;;;;;4976471;28;20487;-68
2024/02/12 00:25:03;;;;;;;1.47;1.37;;;6.10;99.90;;;;;;4976483;28;20856;-68
2024/02/12 00:27:30;;;;;;;1.20;1.10;;;6.20;99.90;;;;;;4976157;28;20426;-68
2024/02/12 00:29:55;;;;;;;1.30;1.20;;;6.30;99.90;;;;;;4979597;28;20770;-69
2024/02/12 00:32:22;;;;;;;2.23;1.07;;;6.30;99.90;;;;;;4987450;28;20503;-68
2024/02/12 00:34:48;;;;;;;2.57;0.97;;;6.40;99.90;;;;;;4979628;28;20211;-68
2024/02/12 00:37:13;;;;;;;1.60;1.40;;;6.40;99.90;;;;;;4995628;28;20987;-68
2024/02/12 00:39:39;;;;;;;1.33;1.23;;;6.40;99.90;;;;;;4995689;28;20238;-68
2024/02/12 00:42:12;;;;;;;1.70;1.60;;;6.40;99.90;;;;;;4995728;28;20261;-68
2024/02/12 00:44:38;;;;;;;0.90;0.90;;;6.40;99.90;;;;;;4995461;28;20167;-68
2024/02/12 00:47:03;;;;;;;2.23;1.00;;;6.30;99.90;;;;;;4976447;28;20800;-68
2024/02/12 00:49:29;;;;;;;1.30;1.20;;;6.20;99.90;;;;;;4976102;28;20422;-68
2024/02/12 00:51:55;;;;;;;2.17;1.20;;;6.20;99.90;;;;;;4975996;28;20177;-68
2024/02/12 00:54:21;;;;;;;2.33;1.60;;;6.10;99.90;;;;;;4975955;28;20199;-68
2024/02/12 00:56:48;;;;;;;3.00;1.37;;;6.10;99.90;;;;;;4975718;28;20247;-68
2024/02/12 00:59:19;;;;;;;1.90;1.37;;;6.20;99.90;;;;;;4979827;28;20175;-68
2024/02/12 01:01:45;;;;;;;2.00;0.90;;;6.20;99.90;;;;;;4995265;28;20459;-68
2024/02/12 01:04:10;;;;;;;1.10;1.00;;;6.30;99.90;;;;;;4995155;28;20445;-68
2024/02/12 01:06:38;;;;;;;4.07;1.43;;;6.40;99.90;;;;;;4994882;28;20230;-68
2024/02/12 01:09:05;;;;;;;1.30;1.20;;;6.40;99.90;;;;;;4995275;28;20295;-68
2024/02/12 01:11:31;;;;;;;1.47;0.90;;;6.40;99.90;;;;;;4995187;28;20458;-68
2024/02/12 01:13:58;;;;;;;3.40;1.37;;;6.40;99.90;;;;;;4994214;28;20418;-68
2024/02/12 01:16:24;;;;;;;1.80;1.40;;;6.40;99.90;;;;;;4994093;28;20487;-68
2024/02/12 01:18:51;;;;;;;1.63;1.40;;;6.30;99.90;;;;;;4994796;28;20928;-68
2024/02/12 01:21:17;;;;;;;1.40;1.30;;;6.30;99.90;;;;;;4994760;28;20550;-68
2024/02/12 01:23:44;;;;;;;1.73;1.20;;;6.30;99.90;;;;;;4994838;28;20450;-68
2024/02/12 01:26:13;;;;;;;5.53;1.40;;;6.40;99.90;;;;;;4994760;28;20944;-68
2024/02/12 01:28:40;;;;;;;1.50;1.40;;;6.40;99.90;;;;;;4993049;28;20484;-68
2024/02/12 01:31:10;;;;;;;3.53;1.50;;;6.50;99.90;;;;;;4994662;28;20477;-68
2024/02/12 01:33:39;;;;;;;2.13;1.23;;;6.50;99.90;;;;;;4994678;28;20418;-68
2024/02/12 01:36:08;;;;;;;1.90;1.00;;;6.50;99.90;;;;;;4994852;28;20461;-68
2024/02/12 01:38:33;;;;;;;0.83;0.83;;;6.50;99.90;;;;;;4994377;28;20419;-69
2024/02/12 01:41:00;;;;;;;2.20;1.10;;;6.50;99.90;;;;;;4994594;28;20411;-69
2024/02/12 01:43:31;;;;;;;1.53;1.10;;;6.40;99.90;;;;;;4993197;28;20168;-69
2024/02/12 01:46:01;;;;;;;1.53;1.30;;;6.30;99.90;;;;;;4994348;28;20442;-69
2024/02/12 01:48:30;;;;;;;0.93;0.83;;;6.30;99.90;;;;;;4994320;28;20585;-69
2024/02/12 01:50:58;;;;;;;2.10;1.30;;;6.20;99.90;;;;;;4994614;28;20938;-69
2024/02/12 01:53:24;;;;;;;1.60;1.50;;;6.20;99.90;;;;;;4994318;28;20950;-68
2024/02/12 01:55:50;;;;;;;1.10;1.00;;;6.20;99.90;;;;;;4994206;28;20431;-69
2024/02/12 01:58:17;;;;;;;3.63;1.13;;;6.20;99.90;;;;;;4992314;28;20184;-69
2024/02/12 02:00:48;;;;;;;2.37;1.20;;;6.30;99.90;;;;;;4994203;28;20171;-69
2024/02/12 02:03:18;;;;;;;1.80;1.47;;;6.30;99.90;;;;;;4994158;28;20465;-69
2024/02/12 02:05:47;;;;;;;1.93;1.00;;;6.30;99.90;;;;;;4993991;28;20439;-68
2024/02/12 02:08:12;;;;;;;1.30;1.20;;;6.40;99.90;;;;;;4993972;28;20415;-69
2024/02/12 02:10:38;;;;;;;1.73;1.13;;;6.40;99.90;;;;;;4994111;28;20419;-69
2024/02/12 02:13:06;;;;;;;2.70;1.23;;;6.40;99.90;;;;;;4992308;28;20180;-69
2024/02/12 02:15:33;;;;;;;1.47;1.37;;;6.50;99.90;;;;;;4993806;28;20549;-69
2024/02/12 02:17:58;;;;;;;2.60;1.40;;;6.50;99.90;;;;;;4993595;28;20453;-68
2024/02/12 02:20:25;;;;;;;1.50;1.17;;;6.50;99.90;;;;;;4993863;28;20815;-68
2024/02/12 02:22:52;;;;;;;1.40;1.30;;;6.50;99.90;;;;;;4993755;28;20715;-69
2024/02/12 02:25:20;;;;;;;2.43;1.10;;;6.50;99.90;;;;;;4992171;28;20815;-69
2024/02/12 02:27:46;;;;;;;1.50;1.10;;;6.60;99.90;;;;;;4991739;28;20418;-68
2024/02/12 02:30:11;;;;;;;1.70;1.60;;;6.60;99.90;;;;;;4993527;28;20908;-68
2024/02/12 02:32:39;;;;;;;1.93;1.17;;;6.60;99.90;;;;;;4993620;28;20414;-69
2024/02/12 02:35:05;;;;;;;2.03;1.30;;;6.50;99.90;;;;;;4993294;28;20590;-69
2024/02/12 02:37:31;;;;;;;4.03;1.00;;;6.50;99.90;;;;;;4991207;28;20442;-68
2024/02/12 02:39:56;;;;;;;1.37;1.07;;;6.50;99.90;;;;;;4993247;28;21162;-69
2024/02/12 02:42:22;;;;;;;1.30;1.13;;;6.40;99.90;;;;;;4978584;28;20467;-68
2024/02/12 02:44:48;;;;;;;1.37;1.27;;;6.30;99.90;;;;;;4975062;28;20223;-69
2024/02/12 02:47:14;;;;;;;0.80;0.80;;;6.30;99.90;;;;;;4973626;28;20211;-68
2024/02/12 02:49:41;;;;;;;0.80;0.80;;;6.30;99.90;;;;;;4973807;28;20175;-69
2024/02/12 02:52:07;;;;;;;2.00;1.20;;;6.30;99.90;;;;;;4973799;28;20427;-69
2024/02/12 02:54:33;;;;;;;1.37;1.10;;;6.30;99.90;;;;;;4980151;28;20477;-69
2024/02/12 02:56:59;;;;;;;2.70;1.03;;;6.40;99.90;;;;;;4992813;28;20419;-69
2024/02/12 02:59:25;;;;;;;1.43;1.00;;;6.40;99.90;;;;;;4991520;28;20180;-68
2024/02/12 03:01:51;;;;;;;1.60;1.50;;;6.40;99.90;;;;;;4992951;28;20605;-69
2024/02/12 03:04:16;;;;;;;1.23;1.13;;;6.40;99.90;;;;;;4993202;28;20175;-68
2024/02/12 03:06:42;;;;;;;1.53;1.43;;;6.40;99.90;;;;;;4992681;28;20195;-69
2024/02/12 03:09:09;;;;;;;1.10;1.00;;;6.50;99.90;;;;;;4981385;28;20423;-69
2024/02/12 03:11:37;;;;;;;1.77;1.20;;;6.50;99.90;;;;;;4973512;28;20271;-69
2024/02/12 03:14:03;;;;;;;1.07;1.07;;;6.50;99.90;;;;;;4975058;28;20443;-69
2024/02/12 03:16:28;;;;;;;0.80;0.80;;;6.60;99.90;;;;;;4992618;28;20446;-69
2024/02/12 03:18:55;;;;;;;2.00;1.10;;;6.60;99.90;;;;;;4992828;28;20175;-69
2024/02/12 03:21:23;;;;;;;1.87;0.97;;;6.60;99.90;;;;;;4992920;28;20693;-69
2024/02/12 03:23:49;;;;;;;1.10;1.00;;;6.70;99.90;;;;;;4992754;28;20485;-68
2024/02/12 03:26:17;;;;;;;3.03;1.10;;;6.70;99.90;;;;;;4973892;28;20534;-68
2024/02/12 03:28:43;;;;;;;0.83;0.80;;;6.80;99.90;;;;;;4973934;28;20454;-68
2024/02/12 03:31:10;;;;;;;0.90;0.90;;;6.80;99.90;;;;;;4973487;28;20555;-69
2024/02/12 03:33:36;;;;;;;1.10;0.90;;;6.80;99.90;;;;;;4973304;28;20439;-69
2024/02/12 03:36:02;;;;;;;0.87;0.87;;;6.80;99.90;;;;;;4972980;28;20459;-69
2024/02/12 03:38:28;;;;;;;1.33;0.93;;;6.80;99.90;;;;;;4972909;28;20416;-68
2024/02/12 03:40:54;;;;;;;2.00;1.20;;;6.80;99.90;;;;;;4975550;28;20439;-69
2024/02/12 03:43:23;;;;;;;1.53;0.80;;;6.80;99.90;;;;;;4991063;28;20214;-68
2024/02/12 03:45:49;;;;;;;1.40;1.03;;;6.80;99.90;;;;;;4990914;28;20439;-69
2024/02/12 04:01:56;;;;;;;0.83;0.83;;;6.60;99.90;;;;;;4976934;28;20458;-68
2024/02/12 04:04:21;;;;;;;0.87;0.87;;;6.50;99.90;;;;;;4976975;28;20443;-68
2024/02/12 04:06:47;;;;;;;2.50;1.00;;;6.40;99.90;;;;;;4976738;28;20463;-69
2024/02/12 04:09:12;;;;;;;1.67;0.83;;;6.40;99.90;;;;;;4976812;28;20264;-68
2024/02/12 04:11:42;;;;;;;0.90;0.90;;;6.40;99.90;;;;;;4976845;28;20548;-69
2024/02/12 04:14:09;;;;;;;0.80;0.77;;;6.30;99.90;;;;;;4982045;28;20175;-69
2024/02/12 04:16:42;;;;;;;1.13;1.07;;;6.30;99.90;;;;;;4995758;28;20446;-68
2024/02/12 04:19:10;;;;;;;0.60;0.60;;;6.30;99.90;;;;;;4996067;28;20765;-68
2024/02/12 04:21:36;;;;;;;0.63;0.63;;;6.30;99.90;;;;;;4995916;28;20470;-68
2024/02/12 04:24:04;;;;;;;2.30;1.07;;;6.30;99.90;;;;;;4996174;28;20444;-68
2024/02/12 04:26:30;;;;;;;1.50;1.13;;;6.40;99.90;;;;;;4995619;28;20195;-69
2024/02/12 04:29:00;;;;;;;1.97;0.70;;;6.40;99.90;;;;;;4994330;28;20518;-68
2024/02/12 04:31:27;;;;;;;0.80;0.80;;;6.40;99.90;;;;;;4996057;28;20426;-69
2024/02/12 04:33:53;;;;;;;1.90;1.03;;;6.50;99.90;;;;;;4995795;28;21063;-68
2024/02/12 04:36:19;;;;;;;0.83;0.73;;;6.50;99.90;;;;;;4995484;28;20482;-68
2024/02/12 04:38:44;;;;;;;1.10;0.80;;;6.40;99.90;;;;;;4995627;28;20654;-68
2024/02/12 04:41:12;;;;;;;0.80;0.80;;;6.40;99.90;;;;;;4995551;28;20461;-68
2024/02/12 04:43:37;;;;;;;0.70;0.70;;;6.40;99.90;;;;;;4994151;28;20179;-68
2024/02/12 04:46:03;;;;;;;1.30;1.20;;;6.30;99.90;;;;;;4992172;28;20447;-68
2024/02/12 04:48:29;;;;;;;1.00;1.00;;;6.40;99.90;;;;;;4976144;28;20186;-68
2024/02/12 04:50:55;;;;;;;1.10;1.00;;;6.40;99.90;;;;;;4976046;28;20259;-68
2024/02/12 04:53:20;;;;;;;1.00;1.00;;;6.40;99.90;;;;;;4975973;28;20977;-68
2024/02/12 04:55:46;;;;;;;5.23;1.10;;;6.50;99.90;;;;;;4975814;28;20196;-68
2024/02/12 04:58:12;;;;;;;1.40;1.00;;;6.50;99.90;;;;;;4977918;28;20176;-68
2024/02/12 05:00:37;;;;;;;1.20;1.10;;;6.40;99.90;;;;;;4995397;28;20670;-68
2024/02/12 05:03:03;;;;;;;1.20;1.10;;;6.40;99.90;;;;;;4994927;28;20685;-68
2024/02/12 05:05:29;;;;;;;2.33;1.10;;;6.50;99.90;;;;;;4995402;28;20442;-68
2024/02/12 05:07:55;;;;;;;1.33;1.23;;;6.50;99.90;;;;;;4995000;28;20172;-68
2024/02/12 05:10:21;;;;;;;1.53;1.43;;;6.40;99.90;;;;;;4995225;28;20425;-68
2024/02/12 05:12:47;;;;;;;1.87;1.40;;;6.40;99.90;;;;;;4993727;28;20192;-68
2024/02/12 05:15:13;;;;;;;1.53;1.43;;;6.30;99.90;;;;;;4995237;28;20225;-68
2024/02/12 05:17:52;;;;;;;2.67;1.77;;;6.30;99.90;;;;;;4994828;28;20430;-68
2024/02/12 05:23:03;;;;;;;1.60;1.50;;;6.20;99.90;;;;;;4995180;28;20838;-69
2024/02/12 05:25:30;;;;;;;2.00;1.53;;;6.10;99.90;;;;;;4994877;28;20940;-68
2024/02/12 05:27:55;;;;;;;3.37;2.10;;;6.10;99.90;;;;;;4987391;28;20491;-68
2024/02/12 05:30:21;;;;;;;2.37;2.03;;;6.00;99.90;;;;;;4975451;28;21028;-68
2024/02/12 05:32:46;;;;;;;1.60;1.50;;;6.00;99.90;;;;;;4975229;28;20184;-68
2024/02/12 05:35:12;;;;;;;1.33;1.23;;;6.00;99.90;;;;;;4974976;28;20216;-68
2024/02/12 05:37:37;;;;;;;2.13;1.57;;;5.90;99.90;;;;;;4975134;28;20742;-68
2024/02/12 05:40:07;;;;;;;2.17;1.70;;;5.90;99.90;;;;;;4975382;28;20177;-68
2024/02/12 05:42:33;;;;;;;2.33;1.80;;;5.90;99.90;;;;;;4986607;28;20218;-67
2024/02/12 05:44:58;;;;;;;1.80;1.70;;;5.80;99.90;;;;;;4994479;28;20829;-68
2024/02/12 05:47:23;;;;;;;3.20;1.70;;;5.80;99.90;;;;;;4994462;28;20167;-68
2024/02/12 05:49:49;;;;;;;2.03;1.80;;;5.80;99.90;;;;;;4994398;28;20776;-68
2024/02/12 05:52:15;;;;;;;2.13;1.93;;;5.70;99.90;;;;;;4994472;28;20175;-68
2024/02/12 05:54:41;;;;;;;5.03;2.10;;;5.80;99.90;;;;;;4994427;28;20210;-68
2024/02/12 05:57:09;;;;;;;2.17;2.07;;;5.80;99.90;;;;;;4992463;28;20176;-68
2024/02/12 05:59:35;;;;;;;2.47;1.97;;;5.80;99.90;;;;;;4994208;28;20505;-68
2024/02/12 06:02:02;;;;;;;2.80;2.50;;;5.80;99.90;;;;;;4994126;28;20762;-68
2024/02/12 06:04:29;;;;;;;5.17;2.60;;;5.80;99.90;;;;;;4994048;28;20766;-68
2024/02/12 06:06:55;;;;;;;4.53;2.60;;;5.80;99.90;;;;;;4993796;28;20427;-69
2024/02/12 06:09:21;;;;;;;4.47;2.57;;;5.80;99.90;;;;;;4993981;28;20492;-68
2024/02/12 06:11:46;;;;;;;2.13;1.67;;;5.90;99.90;;;;;;4992532;28;20458;-68
2024/02/12 06:14:12;;;;;;;2.17;2.07;;;5.90;99.90;;;;;;4993350;28;20183;-68
2024/02/12 06:16:38;;;;;;;2.47;2.27;;;5.90;99.90;;;;;;4992915;28;20203;-68
2024/02/12 06:19:04;;;;;;;4.27;2.60;;;5.80;99.90;;;;;;4993743;28;20234;-68
2024/02/12 06:21:30;;;;;;;2.93;2.50;;;5.90;99.90;;;;;;4993686;28;20496;-68
2024/02/12 06:23:56;;;;;;;2.90;2.50;;;5.90;99.90;;;;;;4993839;28;20647;-68
2024/02/12 06:26:21;;;;;;;3.97;2.33;;;5.90;99.90;;;;;;4992025;28;20530;-68
2024/02/12 06:28:47;;;;;;;3.73;3.30;;;5.90;99.90;;;;;;4993484;28;20171;-68
2024/02/12 06:31:13;;;;;;;3.83;2.77;;;5.90;99.90;;;;;;4993796;28;20254;-68
2024/02/12 06:33:39;;;;;;;3.67;2.57;;;6.00;99.90;;;;;;4993579;28;20433;-68
2024/02/12 06:36:05;;;;;;;2.97;2.37;;;6.00;99.90;;;;;;4993374;28;20458;-68
2024/02/12 06:38:30;;;;;;;2.33;2.13;;;6.00;99.90;;;;;;4991555;28;20253;-69
2024/02/12 06:40:58;;;;;;;3.37;2.50;;;6.00;99.90;;;;;;4991882;28;20167;-68
2024/02/12 06:43:23;;;;;;;2.93;2.60;;;6.00;99.90;;;;;;4993499;28;20249;-68
2024/02/12 06:45:49;;;;;;;4.70;2.70;;;6.10;99.90;;;;;;4993172;28;20882;-68
2024/02/12 06:48:14;;;;;;;3.37;2.57;;;6.10;99.90;;;;;;4993003;28;20167;-68
2024/02/12 06:50:40;;;;;;;2.73;2.17;;;6.10;99.90;;;;;;4993195;28;20732;-68
2024/02/12 06:53:06;;;;;;;5.03;2.80;;;6.10;99.90;;;;;;4991621;28;20205;-68
2024/02/12 06:55:32;;;;;;;4.53;3.93;;;6.10;99.90;;;;;;4993035;28;20195;-68
2024/02/12 06:57:58;;;;;;;4.70;2.93;;;6.10;99.90;;;;;;4991276;28;20438;-68
2024/02/12 07:00:24;;;;;;;5.33;2.73;;;6.10;99.90;;;;;;4981056;28;20805;-69
2024/02/12 07:02:49;;;;;;;2.47;2.20;;;6.10;99.90;;;;;;4978061;28;20627;-68
2024/02/12 07:05:17;;;;;;;7.23;3.00;;;6.00;99.90;;;;;;4993104;28;20191;-68
2024/02/12 07:07:43;;;;;;;3.20;2.33;;;6.00;99.90;;;;;;4992653;28;20188;-68
2024/02/12 07:10:09;;;;;;;3.30;3.00;;;6.00;99.90;;;;;;4993178;28;20850;-68
2024/02/12 07:12:37;;;;;;;3.53;2.77;;;6.10;99.90;;;;;;4991434;28;20183;-68
2024/02/12 07:15:05;;;;;;;2.87;2.67;;;6.10;99.90;;;;;;4992776;28;20434;-69
2024/02/12 07:17:31;;;;;;;3.33;2.10;;;6.10;99.90;;;;;;4992451;28;20786;-68
2024/02/12 07:19:56;;;;;;;2.60;2.40;;;6.10;99.90;;;;;;4975552;28;20438;-68
2024/02/12 07:22:22;;;;;;;3.70;2.43;;;6.10;99.90;;;;;;4992759;28;20242;-68
2024/02/12 07:24:49;;;;;;;3.20;2.53;;;6.20;99.90;;;;;;4992664;28;20187;-68
2024/02/12 07:27:21;;;;;;;3.60;2.20;;;6.20;99.90;;;;;;4990746;28;20661;-68
2024/02/12 07:29:47;;;;;;;3.27;2.83;;;6.20;99.90;;;;;;4993048;28;20916;-68
2024/02/12 07:32:13;;;;;;;2.17;1.97;;;6.30;99.90;;;;;;4992703;28;20953;-69
2024/02/12 07:34:39;;;;;;;3.23;3.03;;;6.40;99.90;;;;;;4992453;28;20417;-68
2024/02/12 07:37:05;;;;;;;3.60;3.00;;;6.50;99.90;;;;;;4992798;28;20427;-67
2024/02/12 07:39:31;;;;;;;2.73;2.53;;;6.60;99.90;;;;;;4992720;28;20868;-67
2024/02/12 07:41:59;;;;;;;3.37;2.63;;;6.60;99.90;;;;;;4981029;28;20498;-67
2024/02/12 07:44:28;;;;;;;2.77;2.10;;;6.70;99.90;;;;;;4973059;28;20511;-67
2024/02/12 07:46:54;;;;;;;3.70;3.07;;;6.70;99.90;;;;;;4972883;28;20487;-67
2024/02/12 07:49:19;;;;;;;4.60;2.77;;;6.70;99.90;;;;;;4973238;28;20419;-67
2024/02/12 07:51:46;;;;;;;2.63;2.37;;;6.80;99.90;;;;;;4973105;28;20188;-67
2024/02/12 07:54:12;;;;;;;2.57;2.37;;;6.80;99.90;;;;;;4973148;28;20172;-67
2024/02/12 07:56:37;;;;;;;4.63;2.40;;;6.90;99.90;;;;;;4990380;28;20450;-67
2024/02/12 07:59:03;;;;;;;2.70;2.50;;;6.90;99.90;;;;;;4992517;28;20617;-67
2024/02/12 08:01:29;;;;;;;3.30;2.23;;;7.00;99.90;;;;;;4992395;28;20634;-67
2024/02/12 08:03:55;;;;;;;2.30;1.80;;;7.00;99.90;;;;;;4992439;28;20434;-67
2024/02/12 08:06:20;;;;;;;2.70;2.33;;;7.00;99.90;;;;;;4992184;28;20203;-67
2024/02/12 08:08:47;;;;;;;1.70;1.60;;;7.00;99.90;;;;;;4992252;28;20295;-67
2024/02/12 08:11:14;;;;;;;1.90;1.70;;;7.00;99.90;;;;;;4990889;28;20183;-67
2024/02/12 08:13:42;;;;;;;2.70;1.97;;;7.00;99.90;;;;;;4992386;28;20426;-67
2024/02/12 08:16:08;;;;;;;2.20;1.40;;;7.00;99.90;;;;;;4992503;28;20442;-67
2024/02/12 08:18:33;;;;;;;1.83;1.40;;;7.00;99.90;;;;;;4992089;28;20442;-67
2024/02/12 08:20:59;;;;;;;3.20;1.90;;;7.10;99.90;;;;;;4992281;28;20920;-67
2024/02/12 08:23:25;;;;;;;2.20;1.60;;;7.20;99.90;;;;;;4991289;28;20254;-67
2024/02/12 08:25:52;;;;;;;2.27;2.07;;;7.30;99.90;;;;;;4984669;28;20462;-67
2024/02/12 08:28:20;;;;;;;1.60;1.50;;;7.40;99.90;;;;;;4972555;28;20164;-68
2024/02/12 08:30:46;;;;;;;2.17;1.40;;;7.60;99.90;;;;;;4972813;28;20419;-67
2024/02/12 08:33:12;;;;;;;1.50;1.40;;;7.70;99.90;;;;;;4972873;28;20475;-67
2024/02/12 08:35:37;;;;;;;3.37;2.13;;;7.90;99.90;;;;;;4973178;28;20463;-67
2024/02/12 08:38:03;;;;;;;2.23;1.50;;;8.10;99.90;;;;;;4992880;28;20187;-67
2024/02/12 08:40:30;;;;;;;1.53;1.43;;;8.20;99.90;;;;;;4994131;28;20214;-67
2024/02/12 08:42:56;;;;;;;1.70;1.60;;;8.20;99.90;;;;;;4995624;28;20685;-67
2024/02/12 08:45:22;;;;;;;1.43;1.33;;;8.30;99.90;;;;;;4995521;28;20905;-68
2024/02/12 08:47:48;;;;;;;2.10;1.10;;;8.30;99.90;;;;;;4995276;28;20558;-67
2024/02/12 08:50:15;;;;;;;9.83;2.43;;;8.20;99.90;;;;;;4995531;28;20310;-67
2024/02/12 08:52:40;;;;;;;1.93;1.70;;;8.30;99.90;;;;;;4994061;28;20175;-67
2024/02/12 08:55:10;;;;;;;1.80;1.70;;;8.30;99.90;;;;;;4995470;28;20465;-67
2024/02/12 08:57:37;;;;;;;1.73;1.63;;;8.30;99.90;;;;;;4977181;28;20181;-67
2024/02/12 09:00:04;;;;;;;1.90;1.50;;;8.30;99.90;;;;;;4988026;28;20423;-67
2024/02/12 09:02:30;;;;;;;2.93;1.47;;;8.30;99.90;;;;;;4995342;28;20455;-67
2024/02/12 09:04:55;;;;;;;3.63;2.07;;;8.40;99.90;;;;;;4995298;28;20437;-67
2024/02/12 09:07:21;;;;;;;1.97;1.87;;;8.30;99.90;;;;;;4994939;28;20720;-67
2024/02/12 09:09:47;;;;;;;2.70;1.67;;;8.30;99.90;;;;;;4979726;28;20168;-67
2024/02/12 09:12:13;;;;;;;1.67;1.57;;;8.30;99.90;;;;;;4976803;28;20183;-67
2024/02/12 09:14:38;;;;;;;3.03;1.90;;;8.40;99.90;;;;;;4975563;28;20172;-67
2024/02/12 09:17:04;;;;;;;4.13;1.73;;;8.50;99.90;;;;;;4975367;28;20814;-67
2024/02/12 09:19:29;;;;;;;3.60;1.80;;;8.70;99.90;;;;;;4975536;28;20597;-67
2024/02/12 09:21:55;;;;;;;2.07;1.57;;;8.90;99.90;;;;;;4975667;28;20207;-67
2024/02/12 09:24:22;;;;;;;3.07;1.60;;;9.10;99.90;;;;;;4975563;28;20243;-67
2024/02/12 09:26:48;;;;;;;1.50;1.40;;;9.30;99.90;;;;;;4992703;28;20279;-67
2024/02/12 09:29:13;;;;;;;1.87;1.73;;;9.40;99.90;;;;;;4994886;28;20518;-68
2024/02/12 09:31:39;;;;;;;2.13;1.73;;;9.30;99.90;;;;;;4994775;28;20589;-67
2024/02/12 09:34:06;;;;;;;1.77;1.63;;;9.30;99.90;;;;;;4994706;28;20230;-67
2024/02/12 09:36:32;;;;;;;2.60;1.60;;;9.10;99.90;;;;;;4994150;28;20590;-67
2024/02/12 09:38:59;;;;;;;1.67;1.47;;;9.20;99.90;;;;;;4994712;28;20427;-67
2024/02/12 09:41:28;;;;;;;2.00;1.80;;;9.20;99.90;;;;;;4992983;28;20480;-67
2024/02/12 09:43:55;;;;;;;1.50;1.37;;;9.30;99.90;;;;;;4994589;28;20423;-68
2024/02/12 09:46:21;;;;;;;2.17;1.97;;;9.30;99.90;;;;;;4994346;28;20442;-67
2024/02/12 09:48:50;;;;;;;3.20;2.27;;;9.40;99.90;;;;;;4993896;28;20425;-67
2024/02/12 09:51:17;;;;;;;4.27;3.00;;;9.50;99.90;;;;;;4993928;28;20916;-68
2024/02/12 09:53:43;;;;;;;3.00;1.90;;;9.60;99.90;;;;;;4994496;28;20458;-67
2024/02/12 09:56:13;;;;;;;2.77;1.80;;;9.60;99.90;;;;;;4992753;28;20497;-67
2024/02/12 09:58:38;;;;;;;2.63;2.43;;;9.70;99.90;;;;;;4994189;28;20419;-68
2024/02/12 10:01:11;;;;;;;2.60;2.40;;;9.90;99.90;;;;;;4994338;28;20415;-67
2024/02/12 10:03:37;;;;;;;2.83;2.20;;;10.10;99.90;;;;;;4994081;28;20227;-67
2024/02/12 10:06:03;;;;;;;2.70;2.50;;;10.20;99.90;;;;;;4993976;28;20481;-68
2024/02/12 10:08:30;;;;;;;3.13;2.30;;;10.40;99.90;;;;;;4993940;28;20654;-68
2024/02/12 10:10:56;;;;;;;3.47;2.20;;;10.40;92.20;;;;;;4992502;28;20458;-67
2024/02/12 10:13:23;;;;;;;4.20;2.53;;;10.40;92.90;;;;;;4993975;28;20521;-67
2024/02/12 10:15:50;;;;;;;4.83;2.10;;;10.20;97.20;;;;;;4976444;28;20191;-67
2024/02/12 10:18:16;;;;;;;2.17;2.07;;;10.00;99.90;;;;;;4993549;28;20473;-67
2024/02/12 10:20:45;;;;;;;2.37;2.17;;;9.80;99.90;;;;;;4993830;28;20505;-67
2024/02/12 10:23:16;;;;;;;3.07;1.97;;;9.60;99.90;;;;;;4992139;28;20454;-67
2024/02/12 10:25:50;;;;;;;2.13;1.93;;;9.50;99.90;;;;;;4993767;28;20450;-67
2024/02/12 10:28:17;;;;;;;3.30;2.80;;;9.60;99.90;;;;;;4993640;28;20437;-67
2024/02/12 10:30:44;;;;;;;2.57;2.20;;;9.40;99.90;;;;;;4993801;28;20423;-67
2024/02/12 10:33:11;;;;;;;2.13;1.93;;;9.40;99.90;;;;;;4993519;28;20419;-67
2024/02/12 10:35:45;;;;;;;2.87;2.53;;;9.30;99.90;;;;;;4993579;28;20458;-67
2024/02/12 10:38:13;;;;;;;2.67;2.47;;;9.30;99.90;;;;;;4993407;28;20414;-67
2024/02/12 10:40:56;;;;;;;2.47;2.23;;;9.40;99.90;;;;;;4990140;28;20442;-67
2024/02/12 10:43:23;;;;;;;7.17;4.60;;;9.60;99.90;;;;;;4993549;28;20930;-67
2024/02/12 10:45:49;;;;;;;3.03;2.13;;;9.50;99.90;;;;;;4993256;28;20474;-67
2024/02/12 10:48:17;;;;;;;1.93;1.83;;;9.70;99.90;;;;;;4993030;28;20450;-67
2024/02/12 10:50:47;;;;;;;2.73;2.53;;;9.80;99.90;;;;;;4993519;28;20172;-68
2024/02/12 10:53:16;;;;;;;3.90;1.93;;;9.80;99.90;;;;;;4993165;28;20916;-67
2024/02/12 10:55:43;;;;;;;2.87;2.53;;;9.80;99.90;;;;;;4991802;28;21014;-67
2024/02/12 10:58:09;;;;;;;2.80;2.60;;;9.80;99.90;;;;;;4992894;28;20917;-67
2024/02/12 11:00:39;;;;;;;3.53;2.60;;;9.60;99.90;;;;;;4992733;28;20419;-67
2024/02/12 11:03:05;;;;;;;3.10;2.80;;;9.40;99.90;;;;;;4992959;28;20485;-67
2024/02/12 11:05:37;;;;;;;5.33;4.07;;;9.50;99.90;;;;;;4992881;28;20443;-67
2024/02/12 11:08:08;;;;;;;3.03;2.40;;;9.70;99.90;;;;;;4991299;28;20420;-67
2024/02/12 11:10:34;;;;;;;3.00;2.70;;;9.80;99.90;;;;;;4992318;28;20429;-67
2024/02/12 11:13:05;;;;;;;2.10;1.90;;;9.70;99.90;;;;;;4981276;28;20705;-67
2024/02/12 11:15:31;;;;;;;2.60;2.33;;;9.60;99.90;;;;;;4977800;28;20949;-67
2024/02/12 11:17:56;;;;;;;3.10;2.10;;;9.50;99.90;;;;;;4975635;28;20952;-67
2024/02/12 11:20:25;;;;;;;3.13;2.10;;;9.50;99.90;;;;;;4973495;28;20419;-67
2024/02/12 11:22:52;;;;;;;3.33;2.10;;;9.40;99.90;;;;;;4973601;28;20243;-67
2024/02/12 11:25:18;;;;;;;4.37;2.43;;;9.30;99.90;;;;;;4975420;28;20447;-69
2024/02/12 11:27:57;;;;;;;2.30;2.10;;;9.30;99.90;;;;;;4989536;28;20463;-67
2024/02/12 11:30:23;;;;;;;5.70;2.73;;;9.30;99.90;;;;;;4992801;28;20430;-67
2024/02/12 11:32:48;;;;;;;6.47;2.80;;;9.30;99.90;;;;;;4992841;28;20513;-67
2024/02/12 11:35:18;;;;;;;3.67;2.40;;;9.20;99.90;;;;;;4992482;28;20199;-66
2024/02/12 11:37:45;;;;;;;3.70;2.40;;;9.30;99.90;;;;;;4992588;28;20616;-67
2024/02/12 11:40:16;;;;;;;2.53;2.30;;;9.30;99.90;;;;;;4976833;28;20428;-67
2024/02/12 11:42:52;;;;;;;11.10;3.37;;;9.30;99.90;;;;;;4973140;28;20487;-67
2024/02/12 11:45:18;;;;;;;2.40;2.20;;;9.30;99.90;;;;;;4973274;28;20939;-67
2024/02/12 11:47:47;;;;;;;2.83;2.63;;;9.40;99.90;;;;;;4972846;28;20515;-67
2024/02/12 11:50:26;;;;;;;2.97;2.53;;;9.50;99.90;;;;;;4973166;28;20493;-67
2024/02/12 11:52:53;;;;;;;2.30;2.10;;;9.70;99.90;;;;;;4976767;28;20422;-67
2024/02/12 11:55:18;;;;;;;2.50;2.30;;;9.90;99.90;;;;;;4982622;28;20461;-67
2024/02/12 11:57:46;;;;;;;2.40;1.60;;;10.30;99.90;;;;;;4992367;28;20426;-67
2024/02/12 12:00:19;;;;;;;2.73;2.13;;;10.90;99.90;;;;;;4992288;28;20423;-67
2024/02/12 12:02:50;;;;;;;1.97;1.80;;;11.20;90.40;;;;;;4992576;28;20466;-67
2024/02/12 12:05:20;;;;;;;1.70;1.60;;;11.60;84.20;;;;;;4992346;28;20437;-66
2024/02/12 12:07:46;;;;;;;3.70;2.33;;;11.90;53.60;;;;;;4990969;28;20420;-67
2024/02/12 12:10:13;;;;;;;4.20;2.10;;;12.00;52.50;;;;;;4992401;28;20425;-67
2024/02/12 12:12:42;;;;;;;1.80;1.70;;;11.70;41.80;;;;;;4992836;28;20450;-67
2024/02/12 12:15:09;;;;;;;3.47;3.17;;;11.30;44.80;;;;;;4995995;28;20458;-67
2024/02/12 12:17:36;;;;;;;2.93;2.40;;;11.30;50.30;;;;;;4995947;28;20912;-67
2024/02/12 12:20:04;;;;;;;2.43;1.57;;;11.30;54.70;;;;;;4996212;28;20497;-67
2024/02/12 12:22:30;;;;;;;3.10;1.80;;;11.20;55.70;;;;;;4994392;28;20454;-67
2024/02/12 12:24:55;;;;;;;2.07;1.77;;;11.30;55.30;;;;;;4992064;28;20443;-67
2024/02/12 12:27:23;;;;;;;2.00;1.90;;;11.30;51.10;;;;;;4976325;28;20665;-67
2024/02/12 12:29:50;;;;;;;4.33;2.00;;;11.20;51.30;;;;;;4976420;28;20312;-67
2024/02/12 12:32:16;;;;;;;3.80;2.00;;;11.30;53.60;;;;;;4976477;28;20419;-68
2024/02/12 12:34:41;;;;;;;2.70;2.30;;;11.20;58.40;;;;;;4976211;28;20443;-67
2024/02/12 12:37:07;;;;;;;1.80;1.70;;;11.10;72.70;;;;;;4979716;28;20437;-67
2024/02/12 12:39:33;;;;;;;1.93;1.70;;;10.80;71.40;;;;;;4995751;28;20218;-67
2024/02/12 12:41:58;;;;;;;1.70;1.60;;;10.50;93.20;;;;;;4995618;28;20202;-67
2024/02/12 12:44:26;;;;;;;1.93;1.80;;;10.40;93.50;;;;;;4995720;28;20545;-70
2024/02/12 12:46:52;;;;;;;1.83;1.67;;;10.20;80.90;;;;;;4995485;28;20182;-67
2024/02/12 12:49:18;;;;;;;2.23;2.03;;;10.20;99.90;;;;;;4995676;28;20427;-66
2024/02/12 12:51:43;;;;;;;1.30;1.30;;;10.50;92.40;;;;;;4987677;28;20206;-68
2024/02/12 12:54:11;;;;;;;1.43;1.33;;;10.80;64.80;;;;;;4976068;28;20175;-69
2024/02/12 12:56:37;;;;;;;2.03;1.27;;;10.80;62.20;;;;;;4975634;28;20198;-69
2024/02/12 12:59:05;;;;;;;1.00;1.00;;;11.10;54.40;;;;;;4975849;28;20993;-69
2024/02/12 13:01:31;;;;;;;1.23;1.13;;;11.10;46.30;;;;;;4975870;28;20206;-69
2024/02/12 13:03:59;;;;;;;1.40;1.30;;;11.00;48.70;;;;;;4976124;28;20502;-68
2024/02/12 13:06:25;;;;;;;2.40;1.60;;;10.80;54.20;;;;;;4975770;28;20885;-68
2024/02/12 13:08:50;;;;;;;0.97;0.97;;;10.80;62.20;;;;;;4975807;28;20506;-68